Time;durP1;ratioP1;P1;durP2;ratioP2;P2;SDS_P1;SDS_P2;PMS_P1;PMS_P2;Temp;Humidity;BMP_temperature;BMP_pressure;BME280_temperature;BME280_humidity;BME280_pressure;Samples;Min_cycle;Max_cycle;Signal;HPM_P1;HPM_P2
2022/08/22 00:01:47;;;;;;;76.13;71.33;;;;;;;16.63;100.00;101526.07;2000045;69;24163;-69
2022/08/22 00:04:21;;;;;;;74.87;70.07;;;;;;;16.50;100.00;101525.44;2007464;70;24163;-68
2022/08/22 00:06:55;;;;;;;74.97;70.27;;;;;;;16.01;100.00;101533.58;1956757;72;24198;-68
2022/08/22 00:09:31;;;;;;;75.13;70.33;;;;;;;16.01;100.00;101533.58;1959693;72;24160;-68
2022/08/22 00:12:11;;;;;;;74.20;69.60;;;;;;;15.88;100.00;101534.62;2012503;70;24280;-68
2022/08/22 00:14:45;;;;;;;75.77;71.13;;;;;;;15.88;100.00;101534.62;2000183;69;24194;-68
2022/08/22 00:17:29;;;;;;;77.53;72.73;;;;;;;16.14;100.00;101521.02;1921390;73;26237;-68
2022/08/22 00:20:04;;;;;;;76.53;71.37;;;;;;;16.14;100.00;101521.02;2012148;71;24096;-68
2022/08/22 00:22:38;;;;;;;79.47;74.23;;;;;;;16.25;100.00;101525.90;1994403;70;26345;-68
2022/08/22 00:25:18;;;;;;;78.40;73.40;;;;;;;16.22;100.00;101527.89;1958496;73;24129;-68
2022/08/22 00:27:51;;;;;;;76.27;71.40;;;;;;;16.36;100.00;101524.57;1962389;71;26236;-67
2022/08/22 00:30:22;;;;;;;79.37;74.17;;;;;;;16.37;100.00;101522.87;1952994;71;26358;-68
2022/08/22 00:32:56;;;;;;;72.60;67.70;;;;;;;16.45;100.00;101521.89;1963399;72;26210;-68
2022/08/22 00:35:29;;;;;;;74.33;69.63;;;;;;;16.50;100.00;101519.00;2012357;70;26276;-68
2022/08/22 00:38:04;;;;;;;74.10;69.10;;;;;;;16.26;100.00;101512.95;1995595;70;24139;-68
2022/08/22 00:40:46;;;;;;;72.97;68.07;;;;;;;16.20;100.00;101505.80;2003547;70;24172;-68
2022/08/22 00:43:48;;;;;;;73.53;68.43;;;;;;;16.20;100.00;101505.80;2009618;70;26211;-68
2022/08/22 00:46:31;;;;;;;74.33;69.23;;;;;;;16.23;100.00;101508.54;1955607;72;24617;-67
2022/08/22 00:49:15;;;;;;;76.40;71.47;;;;;;;16.20;100.00;101494.58;1949169;73;26248;-67
2022/08/22 00:52:02;;;;;;;73.87;69.23;;;;;;;16.20;100.00;101494.58;1918725;73;24191;-68
2022/08/22 00:54:46;;;;;;;77.03;72.13;;;;;;;16.24;100.00;101499.00;1919210;75;24140;-68
2022/08/22 00:57:26;;;;;;;77.60;72.50;;;;;;;16.34;100.00;101490.41;1919059;75;26632;-67
2022/08/22 01:00:19;;;;;;;75.73;70.50;;;;;;;16.36;100.00;101488.12;1918773;75;24152;-67
2022/08/22 01:03:25;;;;;;;75.67;70.67;;;;;;;16.48;100.00;101481.44;1919073;75;26640;-67
2022/08/22 01:06:04;;;;;;;73.10;68.27;;;;;;;16.32;100.00;101494.92;1918788;74;24184;-68
2022/08/22 01:08:45;;;;;;;78.67;73.43;;;;;;;16.15;100.00;101498.03;1918657;75;24205;-68
2022/08/22 01:11:29;;;;;;;75.73;70.53;;;;;;;16.15;100.00;101498.03;1918055;75;24165;-69
2022/08/22 01:14:16;;;;;;;74.60;69.53;;;;;;;16.14;100.00;101501.97;1917988;75;24181;-68
2022/08/22 01:17:02;;;;;;;73.57;68.77;;;;;;;16.10;100.00;101502.32;1917401;75;24183;-68
2022/08/22 01:20:09;;;;;;;73.40;68.80;;;;;;;16.04;100.00;101506.36;1918026;75;24258;-69
2022/08/22 01:23:09;;;;;;;74.37;69.57;;;;;;;16.03;100.00;101504.70;1918476;75;26225;-68
2022/08/22 01:26:10;;;;;;;74.50;69.43;;;;;;;16.11;100.00;101507.63;1918543;75;24153;-69
2022/08/22 01:29:15;;;;;;;74.03;69.27;;;;;;;16.14;100.00;101519.62;1933986;74;26179;-69
2022/08/22 01:32:16;;;;;;;73.40;68.77;;;;;;;16.31;100.00;101526.89;1934001;74;24098;-69
2022/08/22 01:35:14;;;;;;;76.07;71.07;;;;;;;16.39;100.00;101529.55;1932793;74;24142;-68
2022/08/22 01:38:19;;;;;;;74.20;69.20;;;;;;;16.36;100.00;101523.17;1934046;74;24198;-69
2022/08/22 01:45:16;;;;;;;71.70;67.00;;;;;;;16.36;100.00;101514.19;2060469;69;25936;-69
2022/08/22 01:50:49;;;;;;;73.37;68.67;;;;;;;15.96;100.00;101499.46;2030061;69;28152;-68
2022/08/22 01:53:23;;;;;;;79.13;74.03;;;;;;;15.73;100.00;101499.02;1989649;72;24631;-68
2022/08/22 01:55:59;;;;;;;75.97;71.17;;;;;;;15.73;100.00;101499.02;1989807;72;26211;-68
2022/08/22 01:58:32;;;;;;;73.10;68.47;;;;;;;15.47;100.00;101502.73;1989719;72;24200;-68
2022/08/22 02:01:19;;;;;;;71.83;67.07;;;;;;;15.55;100.00;101497.88;1989670;72;26216;-68
2022/08/22 02:03:59;;;;;;;76.37;71.67;;;;;;;15.61;100.00;101500.05;1989037;71;26274;-68
2022/08/22 02:06:38;;;;;;;74.77;69.87;;;;;;;15.80;100.00;101490.48;1989848;72;26728;-68
2022/08/22 02:09:11;;;;;;;77.07;72.27;;;;;;;15.80;100.00;101490.48;1983495;72;26221;-68
2022/08/22 02:11:45;;;;;;;76.47;71.67;;;;;;;15.91;100.00;101483.59;1989653;72;26232;-68
2022/08/22 02:14:20;;;;;;;75.67;70.97;;;;;;;15.82;100.00;101475.62;1989715;72;26224;-68
2022/08/22 02:16:54;;;;;;;75.47;70.57;;;;;;;15.72;100.00;101472.97;1989663;72;26263;-68
2022/08/22 02:19:38;;;;;;;77.67;72.90;;;;;;;15.71;100.00;101473.27;1989559;72;26668;-68
2022/08/22 02:22:16;;;;;;;75.63;70.70;;;;;;;15.71;100.00;101473.27;1989661;72;26183;-68
2022/08/22 02:24:52;;;;;;;76.73;71.87;;;;;;;15.88;100.00;101471.58;1988304;72;26193;-68
2022/08/22 02:30:28;;;;;;;75.97;71.07;;;;;;;16.11;100.00;101469.79;2060264;69;27765;-68
2022/08/22 02:33:04;;;;;;;75.03;70.03;;;;;;;16.14;100.00;101477.58;1981825;72;26140;-68
2022/08/22 02:35:38;;;;;;;77.47;72.27;;;;;;;16.02;100.00;101480.03;1927698;74;26216;-68
2022/08/22 02:38:23;;;;;;;71.77;66.97;;;;;;;16.13;100.00;101484.31;1949963;73;26215;-68
2022/08/22 02:41:02;;;;;;;71.77;67.07;;;;;;;16.18;100.00;101491.23;1950113;73;26238;-68
2022/08/22 02:43:38;;;;;;;74.63;69.30;;;;;;;16.02;100.00;101482.00;1949449;73;26247;-68
2022/08/22 02:46:19;;;;;;;75.00;69.97;;;;;;;16.21;100.00;101490.64;1949927;73;26321;-69
2022/08/22 02:51:57;;;;;;;77.60;72.40;;;;;;;16.25;100.00;101480.48;2060255;69;28052;-69
2022/08/22 02:54:32;;;;;;;76.17;71.40;;;;;;;16.16;100.00;101486.52;2025711;70;24131;-68
2022/08/22 02:57:05;;;;;;;80.70;75.67;;;;;;;16.05;100.00;101490.63;2025776;71;26678;-69
2022/08/22 02:59:38;;;;;;;78.40;73.27;;;;;;;15.99;100.00;101486.83;1927364;74;26262;-69
2022/08/22 03:02:28;;;;;;;74.97;69.97;;;;;;;16.03;100.00;101480.87;1950002;73;26298;-68
2022/08/22 03:05:02;;;;;;;76.90;71.63;;;;;;;15.94;100.00;101472.33;1949828;73;26240;-69
2022/08/22 03:07:39;;;;;;;75.47;70.33;;;;;;;15.87;100.00;101467.70;1950175;73;26213;-68
2022/08/22 03:10:16;;;;;;;74.57;69.60;;;;;;;15.97;100.00;101477.88;1950034;73;26612;-69
2022/08/22 03:12:55;;;;;;;75.03;69.97;;;;;;;16.08;100.00;101474.63;1950127;73;24133;-69
2022/08/22 03:15:29;;;;;;;72.63;67.83;;;;;;;15.84;100.00;101480.90;1950181;73;26237;-69
2022/08/22 03:18:04;;;;;;;73.43;68.43;;;;;;;15.73;100.00;101479.41;1949885;73;26270;-70
2022/08/22 03:20:47;;;;;;;75.73;70.53;;;;;;;15.85;100.00;101460.98;1949982;73;24178;-69
2022/08/22 03:23:33;;;;;;;76.57;71.50;;;;;;;15.75;100.00;101464.52;1950151;73;26271;-70
2022/08/22 03:26:08;;;;;;;77.90;73.00;;;;;;;15.86;100.00;101473.87;1948449;73;26684;-69
2022/08/22 03:28:43;;;;;;;77.43;72.47;;;;;;;15.92;100.00;101473.19;1949933;73;26176;-69
2022/08/22 03:31:16;;;;;;;74.90;69.90;;;;;;;15.80;100.00;101469.47;1950084;73;24113;-69
2022/08/22 03:33:48;;;;;;;74.83;69.50;;;;;;;15.87;100.00;101474.70;1949924;73;26687;-70
2022/08/22 03:36:28;;;;;;;78.27;73.43;;;;;;;15.80;100.00;101459.67;1944978;73;26603;-70
2022/08/22 03:39:12;;;;;;;78.07;72.97;;;;;;;15.80;100.00;101459.67;1949880;73;26613;-69
2022/08/22 03:42:11;;;;;;;79.83;74.17;;;;;;;15.63;100.00;101467.79;1950308;73;26702;-69
2022/08/22 03:45:16;;;;;;;75.70;70.40;;;;;;;15.71;100.00;101462.06;1949047;73;26166;-70
2022/08/22 03:48:08;;;;;;;75.77;70.77;;;;;;;15.57;100.00;101472.39;1949984;73;26278;-69
2022/08/22 03:50:58;;;;;;;78.70;73.43;;;;;;;15.65;100.00;101482.91;1948084;73;26216;-69
2022/08/22 03:53:52;;;;;;;76.40;71.37;;;;;;;15.60;100.00;101481.01;1947101;74;26627;-69
2022/08/22 03:56:50;;;;;;;74.23;69.23;;;;;;;15.68;100.00;101482.28;1944291;74;26216;-69
2022/08/22 03:59:35;;;;;;;73.17;68.07;;;;;;;15.64;100.00;101490.47;1944881;74;26214;-69
2022/08/22 04:06:24;;;;;;;72.93;68.03;;;;;;;15.68;100.00;101497.69;2008246;71;33352;-69
2022/08/22 04:09:24;;;;;;;72.20;67.13;;;;;;;15.55;100.00;101497.05;1962741;72;26276;-69
2022/08/22 04:15:43;;;;;;;71.67;66.40;;;;;;;15.69;100.00;101498.80;2060365;69;27581;-69
2022/08/22 04:22:18;;;;;;;71.57;66.77;;;;;;;15.56;100.00;101492.55;2060154;69;27969;-70
2022/08/22 04:24:55;;;;;;;74.23;68.80;;;;;;;15.40;100.00;101493.89;2015194;71;26196;-69
2022/08/22 04:27:30;;;;;;;70.73;65.83;;;;;;;15.44;100.00;101479.55;2025871;71;26172;-70
2022/08/22 04:30:04;;;;;;;73.30;68.17;;;;;;;15.38;100.00;101494.74;2026127;71;26237;-69
2022/08/22 04:32:39;;;;;;;72.97;67.67;;;;;;;15.42;100.00;101491.61;1927501;74;26213;-70
2022/08/22 04:35:14;;;;;;;75.40;69.90;;;;;;;15.48;100.00;101490.41;1950004;73;26210;-70
2022/08/22 04:37:49;;;;;;;74.07;68.67;;;;;;;15.38;100.00;101490.55;1950009;73;26202;-70
2022/08/22 04:40:23;;;;;;;75.00;69.60;;;;;;;15.41;100.00;101496.37;1949998;73;26224;-70
2022/08/22 04:42:57;;;;;;;72.70;67.63;;;;;;;15.53;100.00;101511.37;1950244;73;26273;-69
2022/08/22 04:45:31;;;;;;;74.30;69.10;;;;;;;15.63;100.00;101511.77;1950030;73;26211;-69
2022/08/22 04:48:06;;;;;;;71.80;66.33;;;;;;;15.51;100.00;101511.39;1949895;73;26233;-69
2022/08/22 04:50:41;;;;;;;73.77;68.33;;;;;;;15.53;100.00;101509.97;1948449;73;26849;-69
2022/08/22 04:53:21;;;;;;;71.23;66.03;;;;;;;15.42;100.00;101510.64;1945263;74;26203;-69
2022/08/22 04:55:58;;;;;;;72.17;67.00;;;;;;;15.46;100.00;101520.09;1944854;73;26654;-68
2022/08/22 04:58:45;;;;;;;71.60;66.47;;;;;;;15.55;100.00;101521.69;1945125;73;26254;-69
2022/08/22 05:04:19;;;;;;;72.27;67.17;;;;;;;15.34;100.00;101508.52;2060377;69;28440;-69
2022/08/22 05:06:52;;;;;;;68.20;62.80;;;;;;;15.17;100.00;101519.38;2026047;71;26199;-69
2022/08/22 05:09:26;;;;;;;70.27;64.90;;;;;;;15.23;100.00;101518.17;2026028;71;26255;-69
2022/08/22 05:11:59;;;;;;;72.80;67.60;;;;;;;15.32;100.00;101521.13;2026030;71;26201;-69
2022/08/22 05:14:33;;;;;;;71.07;65.97;;;;;;;15.46;100.00;101517.86;2026495;71;26208;-69
2022/08/22 05:17:06;;;;;;;73.07;67.97;;;;;;;15.49;100.00;101516.69;2025668;70;26291;-69
2022/08/22 05:19:40;;;;;;;71.03;65.87;;;;;;;15.49;100.00;101511.09;2026248;71;26166;-69
2022/08/22 05:22:15;;;;;;;75.30;69.90;;;;;;;15.57;100.00;101505.99;1945083;73;26279;-69
2022/08/22 05:24:48;;;;;;;71.90;66.60;;;;;;;15.52;100.00;101505.50;1926632;74;26236;-69
2022/08/22 05:27:21;;;;;;;71.70;66.03;;;;;;;15.54;100.00;101504.61;1949888;73;26634;-69
2022/08/22 05:29:54;;;;;;;73.00;67.30;;;;;;;15.50;100.00;101509.16;1949976;73;26737;-69
2022/08/22 05:32:28;;;;;;;73.40;67.67;;;;;;;15.47;100.00;101508.34;1949835;73;26249;-69
2022/08/22 05:35:03;;;;;;;71.97;66.43;;;;;;;15.54;100.00;101506.58;1949871;73;26267;-69
2022/08/22 05:37:36;;;;;;;68.30;63.10;;;;;;;15.61;100.00;101509.85;1950004;73;26698;-69
2022/08/22 05:40:10;;;;;;;71.20;65.33;;;;;;;15.54;100.00;101506.58;1950093;73;26169;-70
2022/08/22 05:42:43;;;;;;;71.43;65.83;;;;;;;15.58;100.00;101508.47;1949733;73;26268;-69
2022/08/22 05:45:15;;;;;;;74.70;69.10;;;;;;;15.55;100.00;101507.69;1949966;73;26163;-69
2022/08/22 05:47:49;;;;;;;72.50;67.07;;;;;;;15.69;100.00;101504.97;1950184;73;26209;-69
2022/08/22 05:50:23;;;;;;;74.90;69.40;;;;;;;15.76;100.00;101506.23;1948583;73;26787;-69
2022/08/22 05:53:01;;;;;;;73.53;68.20;;;;;;;15.80;100.00;101510.66;1943813;74;26172;-69
2022/08/22 05:55:35;;;;;;;74.53;68.83;;;;;;;15.89;100.00;101507.44;1945070;74;26228;-69
2022/08/22 05:58:28;;;;;;;75.73;70.27;;;;;;;15.90;100.00;101510.51;1945413;73;26255;-69
2022/08/22 06:04:08;;;;;;;71.93;66.53;;;;;;;15.79;100.00;101497.78;2044420;69;28053;-68
2022/08/22 06:06:42;;;;;;;75.80;70.37;;;;;;;15.80;100.00;101503.66;2015952;70;26223;-69
2022/08/22 06:09:19;;;;;;;73.90;68.17;;;;;;;15.90;100.00;101497.33;1951969;71;26279;-69
2022/08/22 06:11:53;;;;;;;74.10;68.83;;;;;;;15.91;100.00;101499.01;1957889;73;26238;-69
2022/08/22 06:14:29;;;;;;;72.40;67.17;;;;;;;15.92;100.00;101510.45;2009794;70;26283;-68
2022/08/22 06:17:05;;;;;;;76.73;71.40;;;;;;;15.97;100.00;101502.53;1951919;71;26711;-69
2022/08/22 06:19:38;;;;;;;70.53;65.13;;;;;;;16.02;100.00;101504.42;1954060;72;26246;-69
2022/08/22 06:22:11;;;;;;;73.53;67.83;;;;;;;15.97;100.00;101505.34;2002946;70;26674;-69
2022/08/22 06:24:42;;;;;;;73.20;67.60;;;;;;;16.01;100.00;101495.18;1954431;71;26201;-69
2022/08/22 06:27:16;;;;;;;76.23;70.93;;;;;;;16.00;100.00;101492.14;1963672;72;26278;-69
2022/08/22 06:29:49;;;;;;;78.43;72.90;;;;;;;16.14;100.00;101476.74;1968282;73;26280;-69
2022/08/22 06:32:23;;;;;;;75.67;70.47;;;;;;;16.15;100.00;101474.20;1962614;71;26258;-69
2022/08/22 06:34:56;;;;;;;70.87;65.93;;;;;;;16.15;100.00;101470.00;1962584;72;26228;-69
2022/08/22 06:37:30;;;;;;;71.97;66.70;;;;;;;16.23;100.00;101465.09;1954931;72;26262;-69
2022/08/22 06:40:03;;;;;;;74.63;69.37;;;;;;;16.17;100.00;101461.53;1952924;71;26294;-69
2022/08/22 06:42:36;;;;;;;72.33;67.33;;;;;;;16.33;100.00;101466.31;1957194;71;26798;-69
2022/08/22 06:45:10;;;;;;;70.00;65.03;;;;;;;16.37;100.00;101465.95;2003643;69;26201;-69
2022/08/22 06:47:44;;;;;;;73.20;67.87;;;;;;;16.49;100.00;101457.03;1931986;74;26307;-69
2022/08/22 06:50:18;;;;;;;73.47;68.07;;;;;;;16.59;100.00;101463.31;2007615;70;26263;-69
2022/08/22 06:55:54;;;;;;;72.03;66.93;;;;;;;16.58;100.00;101463.62;2060118;69;27963;-69
2022/08/22 07:01:29;;;;;;;71.87;66.67;;;;;;;16.81;100.00;101444.36;2060056;69;27585;-69
2022/08/22 07:04:03;;;;;;;72.93;67.93;;;;;;;16.89;100.00;101453.44;2008882;70;26622;-70
2022/08/22 07:06:37;;;;;;;70.30;65.23;;;;;;;16.90;100.00;101445.26;1995760;69;26269;-70
2022/08/22 07:09:09;;;;;;;68.67;64.17;;;;;;;16.92;100.00;101441.58;1922476;73;26309;-71
2022/08/22 07:11:41;;;;;;;71.77;66.73;;;;;;;16.96;100.00;101440.37;1979509;71;24223;-70
2022/08/22 07:14:14;;;;;;;69.07;63.97;;;;;;;17.10;100.00;101436.98;1964977;71;26298;-69
2022/08/22 07:16:48;;;;;;;69.10;64.10;;;;;;;17.21;100.00;101445.42;1961148;72;24151;-71
2022/08/22 07:19:27;;;;;;;71.20;66.07;;;;;;;17.21;100.00;101445.42;1961142;71;24224;-71
2022/08/22 07:21:59;;;;;;;67.00;62.00;;;;;;;17.30;100.00;101439.33;1962632;72;24181;-69
2022/08/22 07:24:33;;;;;;;70.63;65.77;;;;;;;17.35;100.00;101437.81;2008040;69;26192;-67
2022/08/22 07:27:11;;;;;;;71.17;66.00;;;;;;;17.39;100.00;101433.22;2000464;70;26199;-69
2022/08/22 07:29:48;;;;;;;69.23;64.47;;;;;;;17.50;100.00;101440.84;2008284;69;26741;-69
2022/08/22 07:32:22;;;;;;;66.80;62.03;;;;;;;17.52;100.00;101439.94;2000085;69;24143;-70
2022/08/22 07:35:03;;;;;;;67.40;62.87;;;;;;;17.55;100.00;101424.67;1999633;69;24206;-70
2022/08/22 07:37:41;;;;;;;66.50;61.90;;;;;;;17.70;100.00;101427.73;1994818;69;24249;-68
2022/08/22 07:40:15;;;;;;;65.03;60.27;;;;;;;17.77;100.00;101439.34;2003876;70;26330;-68
2022/08/22 07:45:49;;;;;;;65.33;60.67;;;;;;;18.05;100.00;101444.27;2060157;69;25916;-69
2022/08/22 07:48:23;;;;;;;66.53;62.00;;;;;;;18.10;100.00;101460.41;1981868;72;24149;-69
2022/08/22 07:51:03;;;;;;;62.97;58.47;;;;;;;18.23;100.00;101463.48;1926023;74;24292;-69
2022/08/22 07:53:39;;;;;;;62.13;57.67;;;;;;;18.40;100.00;101469.20;1946986;74;24128;-70
2022/08/22 07:56:15;;;;;;;61.07;57.10;;;;;;;18.53;100.00;101473.91;1945120;74;26629;-70
2022/08/22 07:58:49;;;;;;;61.83;57.27;;;;;;;18.68;100.00;101472.66;1944990;74;24202;-69
2022/08/22 08:01:22;;;;;;;60.53;56.20;;;;;;;18.86;100.00;101473.83;1983844;72;24173;-69
2022/08/22 08:03:55;;;;;;;61.03;56.93;;;;;;;19.13;100.00;101474.70;1944809;74;24152;-69
2022/08/22 08:06:30;;;;;;;61.13;56.83;;;;;;;19.24;100.00;101471.27;1944850;74;24132;-69
2022/08/22 08:09:01;;;;;;;58.27;54.30;;;;;;;19.38;100.00;101470.53;1945296;73;24113;-69
2022/08/22 08:11:35;;;;;;;56.80;53.07;;;;;;;19.48;100.00;101464.62;1983775;72;24111;-69
2022/08/22 08:14:08;;;;;;;57.20;53.50;;;;;;;19.62;100.00;101470.10;1944862;74;24206;-69
2022/08/22 08:16:45;;;;;;;58.07;54.37;;;;;;;19.78;100.00;101471.25;1983745;72;24205;-70
2022/08/22 08:22:20;;;;;;;53.67;50.37;;;;;;;20.20;100.00;101461.66;2060184;69;25900;-70
2022/08/22 08:24:52;;;;;;;50.37;47.33;;;;;;;20.33;100.00;101460.66;1981859;72;24093;-70
2022/08/22 08:33:19;;;;;;;47.33;44.60;;;;;;;20.66;100.00;101420.80;2060308;69;25913;-74
2022/08/22 08:35:53;;;;;;;46.87;43.63;;;;;;;20.69;100.00;101427.17;1981977;72;24074;-69
2022/08/22 08:38:27;;;;;;;45.63;42.77;;;;;;;20.86;100.00;101424.25;1981984;72;24134;-70
2022/08/22 08:41:18;;;;;;;45.57;42.37;;;;;;;20.98;100.00;101414.20;1982438;72;24137;-72
2022/08/22 08:43:51;;;;;;;41.87;39.30;;;;;;;21.11;100.00;101402.66;1980746;72;24496;-76
2022/08/22 08:46:46;;;;;;;44.13;41.63;;;;;;;21.27;100.00;101400.06;1981648;72;24105;-71
2022/08/22 08:50:03;;;;;;;45.17;42.17;;;;;;;21.31;100.00;101403.86;1975009;72;24236;-75
2022/08/22 08:52:57;;;;;;;54.98;52.20;;;;;;;21.31;100.00;101406.69;1907778;74;28416;-72
2022/08/22 08:55:34;;;;;;;53.30;50.10;;;;;;;21.33;100.00;101411.42;1946972;74;24107;-75
2022/08/22 09:01:19;;;;;;;49.27;46.57;;;;;;;21.61;100.00;101392.72;2053034;69;26355;-79
2022/08/22 09:04:14;;;;;;;49.23;45.97;;;;;;;21.83;100.00;101396.34;2005901;70;24209;-77
2022/08/22 09:06:58;;;;;;;45.90;42.07;;;;;;;21.74;100.00;101387.94;1950426;73;24606;-72
2022/08/22 09:09:38;;;;;;;44.60;41.83;;;;;;;21.83;100.00;101380.78;2001759;69;24144;-73
2022/08/22 09:12:29;;;;;;;45.50;43.00;;;;;;;21.72;100.00;101394.54;1995910;69;24135;-73
2022/08/22 09:15:21;;;;;;;42.73;40.37;;;;;;;21.73;100.00;101393.37;2003559;70;24612;-74
2022/08/22 09:18:22;;;;;;;46.35;43.70;;;;;;;21.71;100.00;101399.95;2007707;70;24623;-74
2022/08/22 09:21:20;;;;;;;45.97;43.27;;;;;;;21.66;100.00;101401.57;1979384;71;24179;-73
2022/08/22 09:24:39;;;;;;;44.03;41.43;;;;;;;21.63;100.00;101401.69;2008578;70;24631;-73
2022/08/22 09:27:14;;;;;;;50.83;48.10;;;;;;;21.62;100.00;101405.69;1914864;75;24608;-73
2022/08/22 09:32:51;;;;;;;45.03;42.53;;;;;;;21.86;100.00;101406.97;2060230;69;25907;-73
2022/08/22 09:35:28;;;;;;;47.20;44.40;;;;;;;21.88;100.00;101401.78;2026289;71;24099;-74
2022/08/22 09:38:06;;;;;;;47.37;44.77;;;;;;;21.67;100.00;101408.30;2026019;71;24627;-73
2022/08/22 09:40:39;;;;;;;51.70;48.80;;;;;;;21.62;100.00;101407.09;2024353;70;24223;-73
2022/08/22 09:43:13;;;;;;;53.60;50.90;;;;;;;21.46;100.00;101404.67;2026125;71;24107;-74
2022/08/22 09:45:52;;;;;;;55.63;52.83;;;;;;;21.53;100.00;101406.34;2025929;71;26633;-74
2022/08/22 09:48:45;;;;;;;55.10;52.20;;;;;;;21.53;100.00;101402.10;2025749;71;24104;-74
2022/08/22 09:54:42;;;;;;;55.60;52.70;;;;;;;21.61;100.00;101401.78;1991497;71;31384;-73
2022/08/22 10:00:25;;;;;;;51.08;48.17;;;;;;;21.71;100.00;101410.68;2048661;69;25579;-73
2022/08/22 10:03:03;;;;;;;50.47;47.90;;;;;;;21.60;100.00;101410.05;1955244;71;24177;-73
2022/08/22 10:05:37;;;;;;;50.70;47.77;;;;;;;21.62;100.00;101417.00;1958510;72;24166;-74
2022/08/22 10:08:38;;;;;;;52.70;49.83;;;;;;;21.50;100.00;101412.70;1962566;72;24280;-74
2022/08/22 10:14:46;;;;;;;50.00;47.27;;;;;;;21.88;100.00;101401.78;2000314;71;30886;-74
2022/08/22 10:17:19;;;;;;;44.27;41.80;;;;;;;22.02;100.00;101406.00;1984183;72;24210;-74
2022/08/22 10:19:53;;;;;;;45.97;43.47;;;;;;;22.02;100.00;101406.00;1972587;72;24697;-73
2022/08/22 10:25:42;;;;;;;46.60;43.90;;;;;;;21.97;100.00;101390.66;2060043;69;25913;-73
2022/08/22 10:28:33;;;;;;;46.42;43.13;;;;;;;21.93;100.00;101398.77;2026296;70;24096;-73
2022/08/22 10:31:15;;;;;;;45.08;42.45;;;;;;;21.88;100.00;101400.37;2025799;70;24220;-73
2022/08/22 10:33:48;;;;;;;45.58;42.95;;;;;;;21.82;100.00;101398.36;2025820;71;24610;-73
2022/08/22 10:39:23;;;;;;;45.95;43.35;;;;;;;21.94;100.00;101384.88;2061608;69;26434;-73
2022/08/22 10:42:09;;;;;;;45.30;42.77;;;;;;;21.94;100.00;101382.87;2021828;71;24560;-73
2022/08/22 10:44:44;;;;;;;44.20;41.95;;;;;;;22.08;100.00;101383.36;2015477;71;24145;-76
2022/08/22 10:47:18;;;;;;;44.67;42.15;;;;;;;22.09;100.00;101377.95;2017028;71;24118;-73
2022/08/22 10:53:28;;;;;;;45.40;42.80;;;;;;;22.20;100.00;101369.84;2044671;68;25942;-74
2022/08/22 10:55:27;;;;;;;45.20;42.58;;;;;;;22.23;100.00;101377.62;2008737;71;24287;-74
2022/08/22 11:01:02;;;;;;;43.60;41.13;;;;;;;22.19;100.00;101377.51;2061151;69;25952;-75
2022/08/22 11:03:37;;;;;;;43.33;40.80;;;;;;;22.18;100.00;101387.75;2019387;71;24113;-73
2022/08/22 11:06:12;;;;;;;44.48;42.00;;;;;;;22.13;100.00;101395.05;2017158;71;24126;-74
2022/08/22 11:09:00;;;;;;;44.53;42.13;;;;;;;22.16;100.00;101394.37;2016874;71;24165;-73
2022/08/22 11:11:44;;;;;;;45.75;42.98;;;;;;;22.21;100.00;101392.70;2016907;71;24126;-74
2022/08/22 11:14:41;;;;;;;44.95;42.70;;;;;;;22.16;100.00;101400.03;2016962;71;24659;-78
2022/08/22 11:17:42;;;;;;;41.60;39.50;;;;;;;22.19;100.00;101390.24;2016950;71;24197;-73
2022/08/22 11:20:19;;;;;;;43.52;41.40;;;;;;;22.13;100.00;101378.06;1890752;73;24138;-72
2022/08/22 11:22:55;;;;;;;43.30;41.08;;;;;;;22.25;100.00;101373.84;1938232;74;24191;-72
2022/08/22 11:25:41;;;;;;;44.73;42.10;;;;;;;22.23;100.00;101382.70;2015560;71;24634;-71
2022/08/22 11:31:51;;;;;;;43.25;40.75;;;;;;;22.12;100.00;101372.20;2006383;71;30943;-71
2022/08/22 11:37:42;;;;;;;43.33;41.03;;;;;;;22.20;100.00;101371.27;2060401;69;25994;-71
2022/08/22 11:40:33;;;;;;;42.65;40.43;;;;;;;22.15;100.00;101372.31;1982062;72;24101;-71
2022/08/22 11:43:10;;;;;;;45.45;43.05;;;;;;;22.04;100.00;101368.27;1981830;72;24536;-71
2022/08/22 11:49:18;;;;;;;46.25;43.90;;;;;;;22.08;100.00;101355.65;2010268;71;30840;-72
2022/08/22 11:55:22;;;;;;;45.88;43.45;;;;;;;21.97;100.00;101336.90;2060262;69;25392;-71
2022/08/22 11:57:55;;;;;;;48.52;45.80;;;;;;;21.95;100.00;101346.31;1981873;72;24109;-72
2022/08/22 12:00:31;;;;;;;46.37;43.80;;;;;;;22.04;100.00;101338.55;1946813;74;24149;-71
2022/08/22 12:03:16;;;;;;;44.90;42.65;;;;;;;22.09;100.00;101350.23;1947005;73;24561;-71
2022/08/22 12:05:49;;;;;;;46.65;43.83;;;;;;;22.15;100.00;101355.92;1946860;74;24116;-71
2022/08/22 12:08:27;;;;;;;48.08;45.55;;;;;;;21.94;100.00;101341.86;1946867;74;24191;-72
2022/08/22 12:11:01;;;;;;;48.13;45.43;;;;;;;21.97;100.00;101340.31;1941812;74;24579;-71
2022/08/22 12:13:38;;;;;;;50.60;47.93;;;;;;;21.82;100.00;101338.14;1947003;74;24137;-71
2022/08/22 12:16:12;;;;;;;50.48;47.78;;;;;;;21.87;100.00;101340.72;1946870;74;24302;-72
2022/08/22 12:18:49;;;;;;;51.05;48.52;;;;;;;21.94;100.00;101341.86;1946385;74;24594;-74
2022/08/22 12:22:02;;;;;;;52.47;49.97;;;;;;;22.00;100.00;101336.77;1946634;74;24221;-74
2022/08/22 12:24:47;;;;;;;54.40;51.30;;;;;;;21.82;100.00;101320.59;1943988;74;24116;-71
2022/08/22 12:27:48;;;;;;;55.97;52.97;;;;;;;21.93;100.00;101317.56;1946467;74;24132;-72
2022/08/22 12:30:23;;;;;;;54.10;51.28;;;;;;;21.83;100.00;101319.38;1946729;74;24588;-72
2022/08/22 12:33:09;;;;;;;50.98;48.25;;;;;;;22.02;100.00;101323.95;1946568;74;24093;-72
2022/08/22 12:35:47;;;;;;;52.73;49.95;;;;;;;22.17;100.00;101333.16;1946586;74;24143;-73
2022/08/22 12:38:25;;;;;;;53.60;50.90;;;;;;;22.18;100.00;101320.66;1946205;74;24117;-72
2022/08/22 12:41:09;;;;;;;53.00;50.20;;;;;;;22.23;100.00;101326.69;1946572;73;24197;-73
2022/08/22 12:43:47;;;;;;;54.73;51.93;;;;;;;22.03;100.00;101331.27;1946390;74;24136;-72
2022/08/22 12:46:25;;;;;;;56.87;53.83;;;;;;;21.95;100.00;101332.78;1946492;73;24124;-72
2022/08/22 12:49:09;;;;;;;57.23;54.47;;;;;;;21.94;100.00;101329.70;1946377;74;24560;-72
2022/08/22 12:55:11;;;;;;;59.63;56.53;;;;;;;22.00;100.00;101333.36;2006401;71;31363;-72
2022/08/22 12:57:45;;;;;;;61.00;58.00;;;;;;;21.98;100.00;101333.48;1973662;72;24170;-71
2022/08/22 13:03:27;;;;;;;66.22;62.78;;;;;;;21.86;100.00;101341.33;2060135;69;25934;-72
2022/08/22 13:05:59;;;;;;;70.78;67.35;;;;;;;21.79;100.00;101336.23;2026070;70;24146;-71
2022/08/22 13:08:33;;;;;;;71.60;68.22;;;;;;;21.79;100.00;101333.41;2026121;71;24111;-72
2022/08/22 13:14:24;;;;;;;73.77;70.27;;;;;;;22.13;100.00;101317.23;2011529;71;30902;-73
2022/08/22 13:16:57;;;;;;;68.65;65.35;;;;;;;22.24;100.00;101318.44;1976512;72;24149;-73
2022/08/22 13:22:30;;;;;;;63.42;60.33;;;;;;;22.30;100.00;101314.17;2060051;69;25712;-73
2022/08/22 13:25:05;;;;;;;64.58;61.35;;;;;;;22.34;100.00;101318.53;2026014;71;24163;-73
2022/08/22 13:27:38;;;;;;;62.67;59.63;;;;;;;22.38;100.00;101308.19;1945060;73;24205;-74
2022/08/22 13:30:18;;;;;;;62.83;59.73;;;;;;;22.51;100.00;101308.39;1946628;73;24140;-73
2022/08/22 13:32:52;;;;;;;60.23;57.10;;;;;;;22.45;100.00;101309.83;1946803;74;24567;-73
2022/08/22 13:35:27;;;;;;;62.57;59.40;;;;;;;22.38;100.00;101301.91;1946600;74;24210;-73
2022/08/22 13:38:01;;;;;;;61.23;58.05;;;;;;;22.47;100.00;101314.53;1946887;73;24113;-72
2022/08/22 13:40:34;;;;;;;65.00;61.60;;;;;;;22.37;100.00;101308.77;1945773;74;24222;-72